sensor_id;sensor_type;location;lat;lon;timestamp;pressure;altitude;pressure_sealevel;temperature
30765;BMP180;494;48.744;10.106;2024-01-07T00:00:54;94700.00;;;6.50
30765;BMP180;494;48.744;10.106;2024-01-07T00:03:22;94848.00;;;6.60
30765;BMP180;494;48.744;10.106;2024-01-07T00:05:52;94926.00;;;6.60
30765;BMP180;494;48.744;10.106;2024-01-07T00:08:21;94353.00;;;6.00
30765;BMP180;494;48.744;10.106;2024-01-07T00:10:51;94651.00;;;6.60
30765;BMP180;494;48.744;10.106;2024-01-07T00:13:20;94862.00;;;6.50
30765;BMP180;494;48.744;10.106;2024-01-07T00:15:51;94929.00;;;6.60
30765;BMP180;494;48.744;10.106;2024-01-07T00:18:21;94887.00;;;6.60
30765;BMP180;494;48.744;10.106;2024-01-07T00:20:51;94873.00;;;6.30
30765;BMP180;494;48.744;10.106;2024-01-07T00:23:20;94510.00;;;4.50
30765;BMP180;494;48.744;10.106;2024-01-07T00:25:50;94601.00;;;6.50
30765;BMP180;494;48.744;10.106;2024-01-07T00:28:19;94935.00;;;6.60
30765;BMP180;494;48.744;10.106;2024-01-07T00:30:48;94671.00;;;6.60
30765;BMP180;494;48.744;10.106;2024-01-07T00:33:17;94469.00;;;6.40
30765;BMP180;494;48.744;10.106;2024-01-07T00:35:45;94702.00;;;5.30
30765;BMP180;494;48.744;10.106;2024-01-07T00:38:14;94763.00;;;6.40
30765;BMP180;494;48.744;10.106;2024-01-07T00:40:44;94939.00;;;6.60
30765;BMP180;494;48.744;10.106;2024-01-07T00:43:14;94891.00;;;6.60
30765;BMP180;494;48.744;10.106;2024-01-07T00:45:43;94861.00;;;6.70
30765;BMP180;494;48.744;10.106;2024-01-07T00:48:14;94598.00;;;6.40
30765;BMP180;494;48.744;10.106;2024-01-07T00:50:43;94850.00;;;6.60
30765;BMP180;494;48.744;10.106;2024-01-07T00:53:12;94970.00;;;6.70
30765;BMP180;494;48.744;10.106;2024-01-07T00:55:42;94931.00;;;6.40
30765;BMP180;494;48.744;10.106;2024-01-07T00:58:10;94945.00;;;6.50
30765;BMP180;494;48.744;10.106;2024-01-07T01:00:43;94824.00;;;6.50
30765;BMP180;494;48.744;10.106;2024-01-07T01:03:12;94927.00;;;6.70
30765;BMP180;494;48.744;10.106;2024-01-07T01:05:41;94366.00;;;6.70
30765;BMP180;494;48.744;10.106;2024-01-07T01:08:10;94938.00;;;6.60
30765;BMP180;494;48.744;10.106;2024-01-07T01:10:39;94936.00;;;6.60
30765;BMP180;494;48.744;10.106;2024-01-07T01:13:09;94520.00;;;4.80
30765;BMP180;494;48.744;10.106;2024-01-07T01:15:40;94703.00;;;6.70
30765;BMP180;494;48.744;10.106;2024-01-07T01:18:09;94868.00;;;6.60
30765;BMP180;494;48.744;10.106;2024-01-07T01:20:41;94199.00;;;6.40
30765;BMP180;494;48.744;10.106;2024-01-07T01:23:10;94942.00;;;6.40
30765;BMP180;494;48.744;10.106;2024-01-07T01:25:39;94789.00;;;6.60
30765;BMP180;494;48.744;10.106;2024-01-07T01:28:10;94924.00;;;6.60
30765;BMP180;494;48.744;10.106;2024-01-07T01:30:40;94817.00;;;6.40
30765;BMP180;494;48.744;10.106;2024-01-07T01:33:09;94940.00;;;6.10
30765;BMP180;494;48.744;10.106;2024-01-07T01:35:38;94946.00;;;6.40
30765;BMP180;494;48.744;10.106;2024-01-07T01:38:09;94860.00;;;6.40
30765;BMP180;494;48.744;10.106;2024-01-07T01:40:52;94884.00;;;6.50
30765;BMP180;494;48.744;10.106;2024-01-07T01:43:24;94888.00;;;6.10
30765;BMP180;494;48.744;10.106;2024-01-07T01:45:59;94939.00;;;6.50
30765;BMP180;494;48.744;10.106;2024-01-07T01:48:28;94830.00;;;6.30
30765;BMP180;494;48.744;10.106;2024-01-07T01:50:57;94802.00;;;6.20
30765;BMP180;494;48.744;10.106;2024-01-07T01:53:26;95021.00;;;6.20
30765;BMP180;494;48.744;10.106;2024-01-07T01:55:57;94708.00;;;6.00
30765;BMP180;494;48.744;10.106;2024-01-07T01:58:29;94904.00;;;6.00
30765;BMP180;494;48.744;10.106;2024-01-07T02:00:59;94869.00;;;6.10
30765;BMP180;494;48.744;10.106;2024-01-07T02:03:30;94986.00;;;6.20
30765;BMP180;494;48.744;10.106;2024-01-07T02:05:59;94903.00;;;5.60
30765;BMP180;494;48.744;10.106;2024-01-07T02:08:29;94946.00;;;6.20
30765;BMP180;494;48.744;10.106;2024-01-07T02:10:58;94877.00;;;6.30
30765;BMP180;494;48.744;10.106;2024-01-07T02:13:27;94826.00;;;6.30
30765;BMP180;494;48.744;10.106;2024-01-07T02:15:58;94922.00;;;6.40
30765;BMP180;494;48.744;10.106;2024-01-07T02:18:29;94285.00;;;6.40
30765;BMP180;494;48.744;10.106;2024-01-07T02:21:02;94855.00;;;6.50
30765;BMP180;494;48.744;10.106;2024-01-07T02:23:30;94593.00;;;6.60
30765;BMP180;494;48.744;10.106;2024-01-07T02:26:01;94847.00;;;6.50
30765;BMP180;494;48.744;10.106;2024-01-07T02:28:30;94955.00;;;6.40
30765;BMP180;494;48.744;10.106;2024-01-07T02:30:59;94880.00;;;6.40
30765;BMP180;494;48.744;10.106;2024-01-07T02:33:28;95069.00;;;6.50
30765;BMP180;494;48.744;10.106;2024-01-07T02:35:58;94922.00;;;6.10
30765;BMP180;494;48.744;10.106;2024-01-07T02:38:31;94949.00;;;6.40
30765;BMP180;494;48.744;10.106;2024-01-07T02:41:02;94826.00;;;6.50
30765;BMP180;494;48.744;10.106;2024-01-07T02:43:32;94856.00;;;6.50
30765;BMP180;494;48.744;10.106;2024-01-07T02:46:02;94214.00;;;6.50
30765;BMP180;494;48.744;10.106;2024-01-07T02:48:34;95036.00;;;5.40
30765;BMP180;494;48.744;10.106;2024-01-07T02:51:03;94873.00;;;6.40
30765;BMP180;494;48.744;10.106;2024-01-07T02:53:35;94360.00;;;6.50
30765;BMP180;494;48.744;10.106;2024-01-07T02:56:07;94947.00;;;5.80
30765;BMP180;494;48.744;10.106;2024-01-07T02:58:39;94839.00;;;6.50
30765;BMP180;494;48.744;10.106;2024-01-07T03:01:10;94990.00;;;6.20
30765;BMP180;494;48.744;10.106;2024-01-07T03:03:39;95074.00;;;6.40
30765;BMP180;494;48.744;10.106;2024-01-07T03:06:07;94821.00;;;6.50
30765;BMP180;494;48.744;10.106;2024-01-07T03:08:36;94853.00;;;6.50
30765;BMP180;494;48.744;10.106;2024-01-07T03:11:20;94914.00;;;6.60
30765;BMP180;494;48.744;10.106;2024-01-07T03:13:48;94985.00;;;6.60
30765;BMP180;494;48.744;10.106;2024-01-07T03:16:20;94799.00;;;5.80
30765;BMP180;494;48.744;10.106;2024-01-07T03:18:49;94952.00;;;6.20
30765;BMP180;494;48.744;10.106;2024-01-07T03:21:19;94609.00;;;6.10
30765;BMP180;494;48.744;10.106;2024-01-07T03:23:51;94858.00;;;6.30
30765;BMP180;494;48.744;10.106;2024-01-07T03:26:21;94868.00;;;5.40
30765;BMP180;494;48.744;10.106;2024-01-07T03:28:50;94493.00;;;6.30
30765;BMP180;494;48.744;10.106;2024-01-07T03:31:20;94979.00;;;6.30
30765;BMP180;494;48.744;10.106;2024-01-07T03:33:50;94808.00;;;6.30
30765;BMP180;494;48.744;10.106;2024-01-07T03:36:20;94770.00;;;6.30
30765;BMP180;494;48.744;10.106;2024-01-07T03:38:50;94966.00;;;6.40
30765;BMP180;494;48.744;10.106;2024-01-07T03:41:25;94899.00;;;6.40
30765;BMP180;494;48.744;10.106;2024-01-07T03:43:54;94968.00;;;6.50
30765;BMP180;494;48.744;10.106;2024-01-07T03:46:26;94799.00;;;6.40
30765;BMP180;494;48.744;10.106;2024-01-07T03:48:56;94726.00;;;5.90
30765;BMP180;494;48.744;10.106;2024-01-07T03:51:25;94941.00;;;6.40
30765;BMP180;494;48.744;10.106;2024-01-07T03:54:00;94990.00;;;5.30
30765;BMP180;494;48.744;10.106;2024-01-07T03:56:31;94485.00;;;5.90
30765;BMP180;494;48.744;10.106;2024-01-07T03:58:59;94895.00;;;6.40
30765;BMP180;494;48.744;10.106;2024-01-07T04:01:28;94969.00;;;6.30
30765;BMP180;494;48.744;10.106;2024-01-07T04:03:57;94457.00;;;6.30
30765;BMP180;494;48.744;10.106;2024-01-07T04:06:26;94505.00;;;4.70
30765;BMP180;494;48.744;10.106;2024-01-07T04:08:55;94912.00;;;6.40
30765;BMP180;494;48.744;10.106;2024-01-07T04:11:24;94105.00;;;6.30
30765;BMP180;494;48.744;10.106;2024-01-07T04:13:54;94994.00;;;6.30
30765;BMP180;494;48.744;10.106;2024-01-07T04:16:22;94484.00;;;5.70
30765;BMP180;494;48.744;10.106;2024-01-07T04:18:51;94834.00;;;5.40
30765;BMP180;494;48.744;10.106;2024-01-07T04:21:21;94988.00;;;6.10
30765;BMP180;494;48.744;10.106;2024-01-07T04:23:49;94779.00;;;6.30
30765;BMP180;494;48.744;10.106;2024-01-07T04:26:18;94800.00;;;6.30
30765;BMP180;494;48.744;10.106;2024-01-07T04:28:47;94576.00;;;6.20
30765;BMP180;494;48.744;10.106;2024-01-07T04:31:18;94923.00;;;6.00
30765;BMP180;494;48.744;10.106;2024-01-07T04:33:46;94649.00;;;5.80
30765;BMP180;494;48.744;10.106;2024-01-07T04:36:15;94995.00;;;6.00
30765;BMP180;494;48.744;10.106;2024-01-07T04:38:44;94598.00;;;6.10
30765;BMP180;494;48.744;10.106;2024-01-07T04:41:13;94923.00;;;6.00
30765;BMP180;494;48.744;10.106;2024-01-07T04:43:43;94976.00;;;6.00
30765;BMP180;494;48.744;10.106;2024-01-07T04:46:13;94449.00;;;3.30
30765;BMP180;494;48.744;10.106;2024-01-07T04:48:44;94998.00;;;6.00
30765;BMP180;494;48.744;10.106;2024-01-07T04:51:13;95122.00;;;6.20
30765;BMP180;494;48.744;10.106;2024-01-07T04:53:42;94931.00;;;6.20
30765;BMP180;494;48.744;10.106;2024-01-07T04:56:11;94882.00;;;6.20
30765;BMP180;494;48.744;10.106;2024-01-07T04:58:40;95020.00;;;6.00
30765;BMP180;494;48.744;10.106;2024-01-07T05:01:09;94755.00;;;6.20
30765;BMP180;494;48.744;10.106;2024-01-07T05:03:38;94768.00;;;5.20
30765;BMP180;494;48.744;10.106;2024-01-07T05:06:10;95007.00;;;6.10
30765;BMP180;494;48.744;10.106;2024-01-07T05:08:40;94394.00;;;6.10
30765;BMP180;494;48.744;10.106;2024-01-07T05:11:09;94860.00;;;6.00
30765;BMP180;494;48.744;10.106;2024-01-07T05:13:38;94939.00;;;5.70
30765;BMP180;494;48.744;10.106;2024-01-07T05:16:07;94985.00;;;5.80
30765;BMP180;494;48.744;10.106;2024-01-07T05:18:36;95027.00;;;5.90
30765;BMP180;494;48.744;10.106;2024-01-07T05:21:06;94987.00;;;6.00
30765;BMP180;494;48.744;10.106;2024-01-07T05:23:36;94946.00;;;6.00
30765;BMP180;494;48.744;10.106;2024-01-07T05:26:07;94958.00;;;5.30
30765;BMP180;494;48.744;10.106;2024-01-07T05:28:37;94977.00;;;3.90
30765;BMP180;494;48.744;10.106;2024-01-07T05:31:14;94775.00;;;6.20
30765;BMP180;494;48.744;10.106;2024-01-07T05:33:42;94929.00;;;5.90
30765;BMP180;494;48.744;10.106;2024-01-07T05:36:13;94828.00;;;5.90
30765;BMP180;494;48.744;10.106;2024-01-07T05:38:43;94960.00;;;6.00
30765;BMP180;494;48.744;10.106;2024-01-07T05:41:12;95090.00;;;6.00
30765;BMP180;494;48.744;10.106;2024-01-07T05:43:41;95043.00;;;5.80
30765;BMP180;494;48.744;10.106;2024-01-07T05:46:10;95043.00;;;5.90
30765;BMP180;494;48.744;10.106;2024-01-07T05:48:43;94926.00;;;5.80
30765;BMP180;494;48.744;10.106;2024-01-07T05:51:13;95093.00;;;5.20
30765;BMP180;494;48.744;10.106;2024-01-07T05:53:44;94666.00;;;5.70
30765;BMP180;494;48.744;10.106;2024-01-07T05:56:13;94803.00;;;5.70
30765;BMP180;494;48.744;10.106;2024-01-07T05:58:42;94958.00;;;5.80
30765;BMP180;494;48.744;10.106;2024-01-07T06:01:11;95001.00;;;5.70
30765;BMP180;494;48.744;10.106;2024-01-07T06:03:47;95050.00;;;5.40
30765;BMP180;494;48.744;10.106;2024-01-07T06:06:16;94849.00;;;5.90
30765;BMP180;494;48.744;10.106;2024-01-07T06:08:47;94970.00;;;5.80
30765;BMP180;494;48.744;10.106;2024-01-07T06:11:16;95045.00;;;5.90
30765;BMP180;494;48.744;10.106;2024-01-07T06:13:47;95059.00;;;5.80
30765;BMP180;494;48.744;10.106;2024-01-07T06:16:16;94729.00;;;5.90
30765;BMP180;494;48.744;10.106;2024-01-07T06:18:45;94974.00;;;5.80
30765;BMP180;494;48.744;10.106;2024-01-07T06:21:14;94991.00;;;5.80
30765;BMP180;494;48.744;10.106;2024-01-07T06:23:42;95072.00;;;5.80
30765;BMP180;494;48.744;10.106;2024-01-07T06:26:14;94974.00;;;5.70
30765;BMP180;494;48.744;10.106;2024-01-07T06:28:43;95094.00;;;5.80
30765;BMP180;494;48.744;10.106;2024-01-07T06:31:12;94741.00;;;5.60
30765;BMP180;494;48.744;10.106;2024-01-07T06:33:41;95098.00;;;5.60
30765;BMP180;494;48.744;10.106;2024-01-07T06:36:10;94958.00;;;5.70
30765;BMP180;494;48.744;10.106;2024-01-07T06:38:39;95142.00;;;5.80
30765;BMP180;494;48.744;10.106;2024-01-07T06:41:09;95006.00;;;6.00
30765;BMP180;494;48.744;10.106;2024-01-07T06:43:39;94934.00;;;5.70
30765;BMP180;494;48.744;10.106;2024-01-07T06:46:08;94769.00;;;5.30
30765;BMP180;494;48.744;10.106;2024-01-07T06:48:37;95081.00;;;5.70
30765;BMP180;494;48.744;10.106;2024-01-07T06:51:11;95202.00;;;5.70
30765;BMP180;494;48.744;10.106;2024-01-07T06:53:42;95122.00;;;5.50
30765;BMP180;494;48.744;10.106;2024-01-07T06:56:10;94583.00;;;5.40
30765;BMP180;494;48.744;10.106;2024-01-07T06:58:42;95091.00;;;5.80
30765;BMP180;494;48.744;10.106;2024-01-07T07:01:11;95104.00;;;5.70
30765;BMP180;494;48.744;10.106;2024-01-07T07:03:41;94520.00;;;5.60
30765;BMP180;494;48.744;10.106;2024-01-07T07:06:10;95107.00;;;5.60
30765;BMP180;494;48.744;10.106;2024-01-07T07:08:41;94976.00;;;5.40
30765;BMP180;494;48.744;10.106;2024-01-07T07:11:11;95087.00;;;5.30
30765;BMP180;494;48.744;10.106;2024-01-07T07:13:48;95112.00;;;5.30
30765;BMP180;494;48.744;10.106;2024-01-07T07:16:17;94882.00;;;5.10
30765;BMP180;494;48.744;10.106;2024-01-07T07:18:46;95109.00;;;5.30
30765;BMP180;494;48.744;10.106;2024-01-07T07:21:14;95112.00;;;5.30
30765;BMP180;494;48.744;10.106;2024-01-07T07:24:00;95094.00;;;5.30
30765;BMP180;494;48.744;10.106;2024-01-07T07:26:46;94860.00;;;5.40
30765;BMP180;494;48.744;10.106;2024-01-07T07:29:20;95228.00;;;5.20
30765;BMP180;494;48.744;10.106;2024-01-07T07:31:49;95190.00;;;5.30
30765;BMP180;494;48.744;10.106;2024-01-07T07:34:18;95067.00;;;5.20
30765;BMP180;494;48.744;10.106;2024-01-07T07:36:48;94529.00;;;3.50
30765;BMP180;494;48.744;10.106;2024-01-07T07:39:18;95127.00;;;5.20
30765;BMP180;494;48.744;10.106;2024-01-07T07:41:50;95142.00;;;5.00
30765;BMP180;494;48.744;10.106;2024-01-07T07:44:21;95070.00;;;5.20
30765;BMP180;494;48.744;10.106;2024-01-07T07:46:50;94609.00;;;5.30
30765;BMP180;494;48.744;10.106;2024-01-07T07:49:21;94973.00;;;5.10
30765;BMP180;494;48.744;10.106;2024-01-07T07:51:52;95049.00;;;5.00
30765;BMP180;494;48.744;10.106;2024-01-07T07:54:21;95058.00;;;5.10
30765;BMP180;494;48.744;10.106;2024-01-07T07:56:50;95023.00;;;5.20
30765;BMP180;494;48.744;10.106;2024-01-07T07:59:17;94924.00;;;4.90
30765;BMP180;494;48.744;10.106;2024-01-07T08:01:53;95135.00;;;4.90
30765;BMP180;494;48.744;10.106;2024-01-07T08:04:23;95151.00;;;4.90
30765;BMP180;494;48.744;10.106;2024-01-07T08:06:54;95056.00;;;3.70
30765;BMP180;494;48.744;10.106;2024-01-07T08:09:24;95121.00;;;4.30
30765;BMP180;494;48.744;10.106;2024-01-07T08:11:53;94789.00;;;4.40
30765;BMP180;494;48.744;10.106;2024-01-07T08:14:22;95096.00;;;4.50
30765;BMP180;494;48.744;10.106;2024-01-07T08:16:52;95023.00;;;4.30
30765;BMP180;494;48.744;10.106;2024-01-07T08:19:24;95059.00;;;3.90
30765;BMP180;494;48.744;10.106;2024-01-07T08:21:53;95101.00;;;4.20
30765;BMP180;494;48.744;10.106;2024-01-07T08:24:24;95186.00;;;4.60
30765;BMP180;494;48.744;10.106;2024-01-07T08:26:54;94991.00;;;4.60
30765;BMP180;494;48.744;10.106;2024-01-07T08:29:23;95166.00;;;3.40
30765;BMP180;494;48.744;10.106;2024-01-07T08:31:54;95268.00;;;4.50
30765;BMP180;494;48.744;10.106;2024-01-07T08:34:25;95135.00;;;4.40
30765;BMP180;494;48.744;10.106;2024-01-07T08:36:54;94865.00;;;3.60
30765;BMP180;494;48.744;10.106;2024-01-07T08:39:23;95088.00;;;3.60
30765;BMP180;494;48.744;10.106;2024-01-07T08:41:53;95061.00;;;4.40
30765;BMP180;494;48.744;10.106;2024-01-07T08:44:22;94690.00;;;4.30
30765;BMP180;494;48.744;10.106;2024-01-07T08:46:51;95217.00;;;4.50
30765;BMP180;494;48.744;10.106;2024-01-07T08:49:21;94677.00;;;3.10
30765;BMP180;494;48.744;10.106;2024-01-07T08:51:50;95214.00;;;4.20
30765;BMP180;494;48.744;10.106;2024-01-07T08:54:19;94890.00;;;3.80
30765;BMP180;494;48.744;10.106;2024-01-07T08:56:48;95085.00;;;4.40
30765;BMP180;494;48.744;10.106;2024-01-07T08:59:16;95026.00;;;4.20
30765;BMP180;494;48.744;10.106;2024-01-07T09:01:45;95260.00;;;4.30
30765;BMP180;494;48.744;10.106;2024-01-07T09:04:14;95022.00;;;4.20
30765;BMP180;494;48.744;10.106;2024-01-07T09:06:45;95009.00;;;4.40
30765;BMP180;494;48.744;10.106;2024-01-07T09:09:14;95043.00;;;4.50
30765;BMP180;494;48.744;10.106;2024-01-07T09:11:43;95229.00;;;4.50
30765;BMP180;494;48.744;10.106;2024-01-07T09:14:13;95144.00;;;4.40
30765;BMP180;494;48.744;10.106;2024-01-07T09:16:42;95229.00;;;4.40
30765;BMP180;494;48.744;10.106;2024-01-07T09:19:11;95073.00;;;4.50
30765;BMP180;494;48.744;10.106;2024-01-07T09:21:41;95088.00;;;4.50
30765;BMP180;494;48.744;10.106;2024-01-07T09:24:12;95237.00;;;4.60
30765;BMP180;494;48.744;10.106;2024-01-07T09:26:42;95269.00;;;4.70
30765;BMP180;494;48.744;10.106;2024-01-07T09:29:11;95240.00;;;4.50
30765;BMP180;494;48.744;10.106;2024-01-07T09:31:41;95076.00;;;4.20
30765;BMP180;494;48.744;10.106;2024-01-07T09:34:10;95116.00;;;4.00
30765;BMP180;494;48.744;10.106;2024-01-07T09:36:39;95252.00;;;3.90
30765;BMP180;494;48.744;10.106;2024-01-07T09:39:08;95234.00;;;3.70
30765;BMP180;494;48.744;10.106;2024-01-07T09:41:38;94742.00;;;3.40
30765;BMP180;494;48.744;10.106;2024-01-07T09:44:08;95302.00;;;3.50
30765;BMP180;494;48.744;10.106;2024-01-07T09:46:39;95164.00;;;3.50
30765;BMP180;494;48.744;10.106;2024-01-07T09:49:10;95154.00;;;3.20
30765;BMP180;494;48.744;10.106;2024-01-07T09:51:43;95288.00;;;3.30
30765;BMP180;494;48.744;10.106;2024-01-07T09:54:17;95216.00;;;3.50
30765;BMP180;494;48.744;10.106;2024-01-07T09:56:55;95186.00;;;3.60
30765;BMP180;494;48.744;10.106;2024-01-07T09:59:29;95280.00;;;3.80
30765;BMP180;494;48.744;10.106;2024-01-07T10:01:58;95301.00;;;3.50
30765;BMP180;494;48.744;10.106;2024-01-07T10:04:27;94929.00;;;3.50
30765;BMP180;494;48.744;10.106;2024-01-07T10:06:57;95225.00;;;3.40
30765;BMP180;494;48.744;10.106;2024-01-07T10:09:32;95265.00;;;3.70
30765;BMP180;494;48.744;10.106;2024-01-07T10:12:03;95273.00;;;3.80
30765;BMP180;494;48.744;10.106;2024-01-07T10:14:31;95282.00;;;4.00
30765;BMP180;494;48.744;10.106;2024-01-07T10:17:01;95249.00;;;3.30
30765;BMP180;494;48.744;10.106;2024-01-07T10:19:30;95275.00;;;3.80
30765;BMP180;494;48.744;10.106;2024-01-07T10:22:00;95013.00;;;4.10
30765;BMP180;494;48.744;10.106;2024-01-07T10:24:36;95272.00;;;4.10
30765;BMP180;494;48.744;10.106;2024-01-07T10:27:23;95047.00;;;4.00
30765;BMP180;494;48.744;10.106;2024-01-07T10:29:53;95262.00;;;3.90
30765;BMP180;494;48.744;10.106;2024-01-07T10:32:22;95215.00;;;4.10
30765;BMP180;494;48.744;10.106;2024-01-07T10:35:04;95287.00;;;4.00
30765;BMP180;494;48.744;10.106;2024-01-07T10:37:34;95299.00;;;3.80
30765;BMP180;494;48.744;10.106;2024-01-07T10:40:05;95287.00;;;3.80
30765;BMP180;494;48.744;10.106;2024-01-07T10:42:38;95162.00;;;3.90
30765;BMP180;494;48.744;10.106;2024-01-07T10:45:08;95217.00;;;3.80
30765;BMP180;494;48.744;10.106;2024-01-07T10:47:40;95051.00;;;3.80
30765;BMP180;494;48.744;10.106;2024-01-07T10:50:13;95271.00;;;3.80
30765;BMP180;494;48.744;10.106;2024-01-07T10:52:50;94679.00;;;3.90
30765;BMP180;494;48.744;10.106;2024-01-07T10:55:25;95297.00;;;4.10
30765;BMP180;494;48.744;10.106;2024-01-07T10:57:57;95276.00;;;4.20
30765;BMP180;494;48.744;10.106;2024-01-07T11:00:27;95299.00;;;3.90
30765;BMP180;494;48.744;10.106;2024-01-07T11:03:07;95280.00;;;3.80
30765;BMP180;494;48.744;10.106;2024-01-07T11:05:49;95173.00;;;3.30
30765;BMP180;494;48.744;10.106;2024-01-07T11:08:25;95216.00;;;4.10
30765;BMP180;494;48.744;10.106;2024-01-07T11:11:04;95022.00;;;4.10
30765;BMP180;494;48.744;10.106;2024-01-07T11:13:38;95212.00;;;3.90
30765;BMP180;494;48.744;10.106;2024-01-07T11:16:07;94892.00;;;3.90
30765;BMP180;494;48.744;10.106;2024-01-07T11:18:39;95275.00;;;4.00
30765;BMP180;494;48.744;10.106;2024-01-07T11:21:08;94940.00;;;3.60
30765;BMP180;494;48.744;10.106;2024-01-07T11:23:43;95282.00;;;3.80
30765;BMP180;494;48.744;10.106;2024-01-07T11:26:13;95239.00;;;3.70
30765;BMP180;494;48.744;10.106;2024-01-07T11:28:49;95385.00;;;3.80
30765;BMP180;494;48.744;10.106;2024-01-07T11:31:21;94947.00;;;3.60
30765;BMP180;494;48.744;10.106;2024-01-07T11:33:51;95273.00;;;4.10
30765;BMP180;494;48.744;10.106;2024-01-07T11:36:20;95301.00;;;3.50
30765;BMP180;494;48.744;10.106;2024-01-07T11:38:50;95132.00;;;4.00
30765;BMP180;494;48.744;10.106;2024-01-07T11:41:21;95205.00;;;4.10
30765;BMP180;494;48.744;10.106;2024-01-07T11:43:58;95232.00;;;3.50
30765;BMP180;494;48.744;10.106;2024-01-07T11:46:33;95308.00;;;4.00
30765;BMP180;494;48.744;10.106;2024-01-07T11:49:02;95299.00;;;4.10
30765;BMP180;494;48.744;10.106;2024-01-07T11:51:32;95201.00;;;4.10
30765;BMP180;494;48.744;10.106;2024-01-07T11:54:02;95288.00;;;3.80
30765;BMP180;494;48.744;10.106;2024-01-07T11:56:31;95145.00;;;2.90
30765;BMP180;494;48.744;10.106;2024-01-07T11:59:01;95303.00;;;3.40
30765;BMP180;494;48.744;10.106;2024-01-07T12:01:30;95289.00;;;3.60
30765;BMP180;494;48.744;10.106;2024-01-07T12:03:59;95138.00;;;3.70
30765;BMP180;494;48.744;10.106;2024-01-07T12:06:28;95299.00;;;3.70
30765;BMP180;494;48.744;10.106;2024-01-07T12:08:57;95184.00;;;3.60
30765;BMP180;494;48.744;10.106;2024-01-07T12:11:26;95251.00;;;3.70
30765;BMP180;494;48.744;10.106;2024-01-07T12:13:56;95293.00;;;3.70
30765;BMP180;494;48.744;10.106;2024-01-07T12:16:27;95294.00;;;3.50
30765;BMP180;494;48.744;10.106;2024-01-07T12:18:55;95303.00;;;3.70
30765;BMP180;494;48.744;10.106;2024-01-07T12:21:24;95214.00;;;3.20
30765;BMP180;494;48.744;10.106;2024-01-07T12:23:56;95191.00;;;3.60
30765;BMP180;494;48.744;10.106;2024-01-07T12:26:27;95143.00;;;3.50
30765;BMP180;494;48.744;10.106;2024-01-07T12:28:58;94997.00;;;3.60
30765;BMP180;494;48.744;10.106;2024-01-07T12:31:33;95309.00;;;3.40
30765;BMP180;494;48.744;10.106;2024-01-07T12:34:03;95226.00;;;3.30
30765;BMP180;494;48.744;10.106;2024-01-07T12:36:31;95035.00;;;3.10
30765;BMP180;494;48.744;10.106;2024-01-07T12:39:02;95170.00;;;3.40
30765;BMP180;494;48.744;10.106;2024-01-07T12:41:31;94888.00;;;3.20
30765;BMP180;494;48.744;10.106;2024-01-07T12:44:00;94971.00;;;2.70
30765;BMP180;494;48.744;10.106;2024-01-07T12:46:28;95222.00;;;2.40
30765;BMP180;494;48.744;10.106;2024-01-07T12:49:01;95092.00;;;3.40
30765;BMP180;494;48.744;10.106;2024-01-07T12:51:30;95230.00;;;3.40
30765;BMP180;494;48.744;10.106;2024-01-07T12:53:58;95273.00;;;3.40
30765;BMP180;494;48.744;10.106;2024-01-07T12:56:31;95333.00;;;3.20
30765;BMP180;494;48.744;10.106;2024-01-07T12:58:59;95333.00;;;2.70
30765;BMP180;494;48.744;10.106;2024-01-07T13:01:28;95342.00;;;3.10
30765;BMP180;494;48.744;10.106;2024-01-07T13:04:00;95336.00;;;3.30
30765;BMP180;494;48.744;10.106;2024-01-07T13:06:30;95342.00;;;3.30
30765;BMP180;494;48.744;10.106;2024-01-07T13:08:58;95336.00;;;3.30
30765;BMP180;494;48.744;10.106;2024-01-07T13:11:32;95006.00;;;2.30
30765;BMP180;494;48.744;10.106;2024-01-07T13:14:01;95338.00;;;3.30
30765;BMP180;494;48.744;10.106;2024-01-07T13:16:31;95182.00;;;3.20
30765;BMP180;494;48.744;10.106;2024-01-07T13:19:01;95345.00;;;3.40
30765;BMP180;494;48.744;10.106;2024-01-07T13:21:32;95387.00;;;2.80
30765;BMP180;494;48.744;10.106;2024-01-07T13:24:06;94824.00;;;3.20
30765;BMP180;494;48.744;10.106;2024-01-07T13:26:34;95127.00;;;3.10
30765;BMP180;494;48.744;10.106;2024-01-07T13:29:03;94774.00;;;2.50
30765;BMP180;494;48.744;10.106;2024-01-07T13:31:32;95326.00;;;3.10
30765;BMP180;494;48.744;10.106;2024-01-07T13:34:02;95097.00;;;3.20
30765;BMP180;494;48.744;10.106;2024-01-07T13:36:31;94948.00;;;3.40
30765;BMP180;494;48.744;10.106;2024-01-07T13:39:00;95273.00;;;3.50
30765;BMP180;494;48.744;10.106;2024-01-07T13:41:34;95425.00;;;3.30
30765;BMP180;494;48.744;10.106;2024-01-07T13:44:06;95271.00;;;3.30
30765;BMP180;494;48.744;10.106;2024-01-07T13:46:45;95309.00;;;2.00
30765;BMP180;494;48.744;10.106;2024-01-07T13:49:16;95341.00;;;3.10
30765;BMP180;494;48.744;10.106;2024-01-07T13:51:45;95040.00;;;3.10
30765;BMP180;494;48.744;10.106;2024-01-07T13:54:15;95285.00;;;2.00
30765;BMP180;494;48.744;10.106;2024-01-07T13:56:45;95131.00;;;2.90
30765;BMP180;494;48.744;10.106;2024-01-07T13:59:14;95286.00;;;3.30
30765;BMP180;494;48.744;10.106;2024-01-07T14:01:45;94785.00;;;2.80
30765;BMP180;494;48.744;10.106;2024-01-07T14:04:16;95105.00;;;1.30
30765;BMP180;494;48.744;10.106;2024-01-07T14:06:45;95304.00;;;1.60
30765;BMP180;494;48.744;10.106;2024-01-07T14:09:16;95389.00;;;2.90
30765;BMP180;494;48.744;10.106;2024-01-07T14:11:46;94713.00;;;2.50
30765;BMP180;494;48.744;10.106;2024-01-07T14:14:15;95285.00;;;0.10
30765;BMP180;494;48.744;10.106;2024-01-07T14:16:44;95275.00;;;2.70
30765;BMP180;494;48.744;10.106;2024-01-07T14:19:13;95483.00;;;2.50
30765;BMP180;494;48.744;10.106;2024-01-07T14:21:45;95391.00;;;1.10
30765;BMP180;494;48.744;10.106;2024-01-07T14:24:16;95445.00;;;2.30
30765;BMP180;494;48.744;10.106;2024-01-07T14:26:49;95467.00;;;2.70
30765;BMP180;494;48.744;10.106;2024-01-07T14:29:28;94913.00;;;2.70
30765;BMP180;494;48.744;10.106;2024-01-07T14:32:01;95386.00;;;2.90
30765;BMP180;494;48.744;10.106;2024-01-07T14:34:32;95438.00;;;3.00
30765;BMP180;494;48.744;10.106;2024-01-07T14:37:05;95419.00;;;3.20
30765;BMP180;494;48.744;10.106;2024-01-07T14:39:35;95433.00;;;3.00
30765;BMP180;494;48.744;10.106;2024-01-07T14:42:07;95077.00;;;3.30
30765;BMP180;494;48.744;10.106;2024-01-07T14:44:37;94932.00;;;3.00
30765;BMP180;494;48.744;10.106;2024-01-07T14:47:16;94941.00;;;3.30
30765;BMP180;494;48.744;10.106;2024-01-07T14:49:46;95361.00;;;3.40
30765;BMP180;494;48.744;10.106;2024-01-07T14:52:18;95058.00;;;3.30